Time;durP1;ratioP1;P1;durP2;ratioP2;P2;SDS_P1;SDS_P2;PMS_P1;PMS_P2;Temp;Humidity;BMP_temperature;BMP_pressure;BME280_temperature;BME280_humidity;BME280_pressure;Samples;Min_cycle;Max_cycle;Signal;HPM_P1;HPM_P2
2023/03/19 00:01:07;;;;;;;4.63;2.90;;;10.00;99.90;;;;;;4836926;29;20653;-74
2023/03/19 00:03:33;;;;;;;4.90;2.63;;;10.00;99.90;;;;;;4807696;29;20286;-74
2023/03/19 00:05:59;;;;;;;5.32;3.10;;;10.00;99.90;;;;;;4855006;29;20041;-74
2023/03/19 00:08:25;;;;;;;4.63;3.23;;;10.00;99.90;;;;;;4841630;29;20133;-74
2023/03/19 00:10:51;;;;;;;4.03;2.80;;;10.00;99.90;;;;;;4826388;29;20377;-74
2023/03/19 00:13:17;;;;;;;3.07;2.23;;;10.00;99.90;;;;;;4840617;29;20042;-75
2023/03/19 00:15:43;;;;;;;4.60;2.65;;;10.00;99.90;;;;;;4825932;29;20045;-74
2023/03/19 00:18:09;;;;;;;5.13;2.67;;;10.00;99.90;;;;;;4812551;29;20042;-74
2023/03/19 00:20:35;;;;;;;3.47;2.60;;;10.00;99.90;;;;;;4842975;29;20144;-75
2023/03/19 00:23:01;;;;;;;4.77;2.20;;;10.00;99.90;;;;;;4834153;29;20056;-74
2023/03/19 00:25:27;;;;;;;5.20;2.63;;;10.00;99.90;;;;;;4826757;29;20060;-74
2023/03/19 00:27:53;;;;;;;2.87;2.40;;;9.90;99.90;;;;;;4826854;29;20410;-74
2023/03/19 00:30:20;;;;;;;5.20;2.30;;;9.90;99.90;;;;;;4826631;29;20065;-74
2023/03/19 00:32:47;;;;;;;5.72;2.40;;;9.90;99.90;;;;;;4840609;29;20067;-74
2023/03/19 00:35:13;;;;;;;3.05;2.15;;;9.90;99.90;;;;;;4815961;29;20073;-74
2023/03/19 00:37:39;;;;;;;6.05;2.35;;;9.80;99.90;;;;;;4825618;29;20208;-75
2023/03/19 00:40:06;;;;;;;2.97;2.37;;;9.80;99.90;;;;;;4793081;29;20135;-74
2023/03/19 00:42:32;;;;;;;5.20;2.17;;;9.80;99.90;;;;;;4819659;29;20072;-74
2023/03/19 00:44:58;;;;;;;3.77;2.20;;;9.70;99.90;;;;;;4842012;29;20129;-74
2023/03/19 00:47:24;;;;;;;3.50;2.10;;;9.70;99.90;;;;;;4842506;29;20354;-75
2023/03/19 00:49:50;;;;;;;4.03;2.38;;;9.70;99.90;;;;;;4825231;29;20109;-74
2023/03/19 00:52:16;;;;;;;5.00;2.57;;;9.70;99.90;;;;;;4810105;29;20414;-75
2023/03/19 00:54:41;;;;;;;3.67;2.50;;;9.70;99.90;;;;;;4825927;29;20060;-75
2023/03/19 00:57:07;;;;;;;3.53;2.67;;;9.70;99.90;;;;;;4810580;29;20053;-75
2023/03/19 00:59:33;;;;;;;6.10;3.07;;;9.70;99.90;;;;;;4825788;29;20053;-75
2023/03/19 01:01:59;;;;;;;3.13;2.23;;;9.70;99.90;;;;;;4811255;29;20306;-75
2023/03/19 01:04:25;;;;;;;4.23;2.50;;;9.70;99.90;;;;;;4818059;29;20336;-75
2023/03/19 01:06:50;;;;;;;4.23;2.60;;;9.70;99.90;;;;;;4822748;29;20045;-74
2023/03/19 01:09:16;;;;;;;5.10;2.63;;;9.70;99.90;;;;;;4795131;29;20042;-74
2023/03/19 01:11:42;;;;;;;4.00;2.50;;;9.70;99.90;;;;;;4825274;29;20132;-74
2023/03/19 01:14:08;;;;;;;4.00;2.40;;;9.80;99.90;;;;;;4824767;29;20452;-74
2023/03/19 01:16:34;;;;;;;3.90;2.43;;;9.80;99.90;;;;;;4855138;29;20049;-74
2023/03/19 01:19:01;;;;;;;3.50;2.63;;;9.80;99.90;;;;;;4806573;29;20042;-74
2023/03/19 01:21:29;;;;;;;3.63;2.35;;;9.80;99.90;;;;;;4835433;29;20681;-74
2023/03/19 01:23:56;;;;;;;5.28;2.75;;;9.80;99.90;;;;;;4833710;29;20463;-74
2023/03/19 01:26:22;;;;;;;4.35;2.80;;;9.80;99.90;;;;;;4810068;29;20053;-74
2023/03/19 01:28:48;;;;;;;5.72;3.03;;;9.80;99.90;;;;;;4839772;29;20049;-74
2023/03/19 01:31:14;;;;;;;5.87;4.03;;;9.80;99.90;;;;;;4811001;29;20581;-74
2023/03/19 01:33:41;;;;;;;8.68;3.58;;;9.80;99.90;;;;;;4810197;29;20646;-74
2023/03/19 01:36:11;;;;;;;6.03;3.50;;;9.80;99.90;;;;;;4841432;29;20042;-74
2023/03/19 01:38:37;;;;;;;5.57;3.88;;;9.80;99.90;;;;;;4797382;29;20048;-75
2023/03/19 01:41:02;;;;;;;6.60;4.03;;;9.80;99.90;;;;;;4825914;29;20045;-74
2023/03/19 01:43:31;;;;;;;8.70;4.77;;;9.80;99.90;;;;;;4792927;29;20058;-74
2023/03/19 01:45:57;;;;;;;6.32;3.72;;;9.80;99.90;;;;;;4839909;29;20099;-74
2023/03/19 01:48:44;;;;;;;5.60;3.93;;;9.70;99.90;;;;;;4841239;29;20080;-74
2023/03/19 01:51:13;;;;;;;6.10;3.63;;;9.70;99.90;;;;;;4840531;29;20402;-74
2023/03/19 01:53:46;;;;;;;4.90;3.50;;;9.80;99.90;;;;;;4818397;29;20102;-74
2023/03/19 01:56:22;;;;;;;6.63;3.63;;;9.80;99.90;;;;;;4822387;29;20054;-75
2023/03/19 01:58:53;;;;;;;5.82;3.15;;;9.70;99.90;;;;;;4825503;29;20298;-75
2023/03/19 02:01:19;;;;;;;7.28;3.65;;;9.70;99.90;;;;;;4817220;29;20522;-75
2023/03/19 02:03:45;;;;;;;6.00;3.65;;;9.80;99.90;;;;;;4839187;29;20045;-75
2023/03/19 02:06:12;;;;;;;10.40;4.50;;;9.80;99.90;;;;;;4809325;29;20045;-74
2023/03/19 02:08:39;;;;;;;10.25;5.53;;;9.80;99.90;;;;;;4805286;29;20802;-75
2023/03/19 02:11:05;;;;;;;8.25;6.13;;;9.80;99.90;;;;;;4809504;29;20045;-74
2023/03/19 02:13:32;;;;;;;12.90;7.57;;;9.80;99.90;;;;;;4823815;29;20049;-74
2023/03/19 02:15:58;;;;;;;11.95;8.38;;;9.90;99.90;;;;;;4820755;29;20323;-74
2023/03/19 02:18:24;;;;;;;12.80;9.07;;;9.90;99.90;;;;;;4808450;29;20038;-74
2023/03/19 02:21:01;;;;;;;13.90;9.18;;;9.90;99.90;;;;;;4810071;29;20037;-74
2023/03/19 02:23:41;;;;;;;14.43;9.70;;;9.90;99.90;;;;;;4839886;29;20380;-74
2023/03/19 02:26:21;;;;;;;13.82;9.98;;;9.90;99.90;;;;;;4852487;29;20053;-74
2023/03/19 02:28:49;;;;;;;17.55;11.57;;;9.80;99.90;;;;;;4834655;29;20565;-74
2023/03/19 02:31:17;;;;;;;17.95;12.18;;;9.80;99.90;;;;;;4835641;29;20140;-74
2023/03/19 02:33:43;;;;;;;21.10;13.00;;;9.80;99.90;;;;;;4819723;29;20046;-74
2023/03/19 02:36:16;;;;;;;20.17;13.45;;;9.80;99.90;;;;;;4825618;29;20120;-74
2023/03/19 02:38:44;;;;;;;18.75;12.77;;;9.80;99.90;;;;;;4824987;29;20067;-74
2023/03/19 02:41:10;;;;;;;19.17;13.32;;;9.80;99.90;;;;;;4820748;29;20042;-74
2023/03/19 02:43:38;;;;;;;19.50;12.60;;;9.80;99.90;;;;;;4822915;29;20565;-74
2023/03/19 02:46:08;;;;;;;19.65;12.80;;;9.70;99.90;;;;;;4821663;29;20050;-74
2023/03/19 02:48:35;;;;;;;20.40;14.15;;;9.70;99.90;;;;;;4839186;29;20479;-74
2023/03/19 02:51:01;;;;;;;18.40;12.82;;;9.70;99.90;;;;;;4818539;29;20379;-74
2023/03/19 02:53:27;;;;;;;19.27;12.73;;;9.70;99.90;;;;;;4793318;29;20060;-74
2023/03/19 02:55:52;;;;;;;16.77;12.47;;;9.70;99.90;;;;;;4813211;29;20049;-74
2023/03/19 02:58:18;;;;;;;16.17;11.47;;;9.70;99.90;;;;;;4823107;29;20068;-74
2023/03/19 03:00:45;;;;;;;18.20;12.17;;;9.70;99.90;;;;;;4824125;29;20049;-74
2023/03/19 03:03:11;;;;;;;16.13;11.63;;;9.70;99.90;;;;;;4823780;29;20529;-74
2023/03/19 03:05:37;;;;;;;17.25;10.30;;;9.70;99.90;;;;;;4823416;29;20045;-74
2023/03/19 03:08:04;;;;;;;15.07;11.10;;;9.70;99.90;;;;;;4822581;29;20044;-74
2023/03/19 03:10:30;;;;;;;16.02;10.50;;;9.70;99.90;;;;;;4824027;29;20521;-74
2023/03/19 03:12:57;;;;;;;18.42;11.18;;;9.60;99.90;;;;;;4822707;29;20049;-74
2023/03/19 03:15:23;;;;;;;17.10;10.70;;;9.60;99.90;;;;;;4821643;29;20073;-74
2023/03/19 03:17:49;;;;;;;15.60;10.67;;;9.60;99.90;;;;;;4821774;29;20077;-74
2023/03/19 03:20:16;;;;;;;14.17;9.53;;;9.60;99.90;;;;;;4808122;29;20034;-74
2023/03/19 03:22:43;;;;;;;14.20;10.32;;;9.60;99.90;;;;;;4838083;29;20122;-74
2023/03/19 03:25:10;;;;;;;14.18;10.68;;;9.60;99.90;;;;;;4823432;29;20033;-74
2023/03/19 03:27:36;;;;;;;15.00;10.10;;;9.60;99.90;;;;;;4839043;29;20049;-74
2023/03/19 03:30:05;;;;;;;14.63;9.88;;;9.60;99.90;;;;;;4838364;29;20065;-74
2023/03/19 03:32:31;;;;;;;14.63;10.65;;;9.60;99.90;;;;;;4820730;29;20054;-74
2023/03/19 03:34:57;;;;;;;13.70;9.73;;;9.50;99.90;;;;;;4826216;29;20132;-74
2023/03/19 03:37:22;;;;;;;15.83;10.47;;;9.60;99.90;;;;;;4833282;29;20129;-74
2023/03/19 03:39:48;;;;;;;17.60;10.53;;;9.60;99.90;;;;;;4825832;29;20038;-74
2023/03/19 03:42:14;;;;;;;14.67;10.30;;;9.60;99.90;;;;;;4824635;29;20050;-74
2023/03/19 03:44:40;;;;;;;13.90;10.07;;;9.60;99.90;;;;;;4822592;29;20081;-74
2023/03/19 03:47:06;;;;;;;12.93;9.97;;;9.60;99.90;;;;;;4811949;29;20041;-75
2023/03/19 03:49:31;;;;;;;14.83;10.40;;;9.60;99.90;;;;;;4827344;29;20049;-74
2023/03/19 03:51:57;;;;;;;14.50;9.70;;;9.60;99.90;;;;;;4825963;29;20626;-74
2023/03/19 03:54:23;;;;;;;13.63;9.63;;;9.60;99.90;;;;;;4810422;29;20041;-74
2023/03/19 03:56:49;;;;;;;16.97;10.50;;;9.60;99.90;;;;;;4810413;29;20429;-74
2023/03/19 03:59:15;;;;;;;14.18;9.77;;;9.60;99.90;;;;;;4826905;29;20037;-74
2023/03/19 04:01:41;;;;;;;16.23;11.47;;;9.60;99.90;;;;;;4822651;29;20042;-74
2023/03/19 04:04:07;;;;;;;15.73;10.63;;;9.60;99.90;;;;;;4833971;29;20358;-74
2023/03/19 04:06:33;;;;;;;15.73;10.77;;;9.50;99.90;;;;;;4826684;29;20077;-74
2023/03/19 04:09:00;;;;;;;17.37;11.90;;;9.50;99.90;;;;;;4806828;29;20140;-74
2023/03/19 04:11:26;;;;;;;18.13;11.60;;;9.50;99.90;;;;;;4840229;29;20294;-74
2023/03/19 04:13:56;;;;;;;19.90;11.93;;;9.50;99.90;;;;;;4826318;29;20502;-74
2023/03/19 04:16:23;;;;;;;16.17;12.32;;;9.40;99.90;;;;;;4841819;29;20049;-74
2023/03/19 04:18:48;;;;;;;19.25;12.77;;;9.30;99.90;;;;;;4810899;29;20561;-74
2023/03/19 04:21:14;;;;;;;17.80;13.30;;;9.30;99.90;;;;;;4823780;29;20041;-75
2023/03/19 04:23:40;;;;;;;19.07;13.90;;;9.20;99.90;;;;;;4811005;29;20041;-75
2023/03/19 04:26:06;;;;;;;19.50;14.50;;;9.10;99.90;;;;;;4825721;29;20188;-75
2023/03/19 04:28:33;;;;;;;20.27;13.80;;;9.10;99.90;;;;;;4808271;29;20106;-74
2023/03/19 04:31:04;;;;;;;18.80;13.52;;;8.90;99.90;;;;;;4825400;29;20136;-74
2023/03/19 04:33:30;;;;;;;21.58;14.75;;;8.80;99.90;;;;;;4825462;29;20049;-74
2023/03/19 04:35:56;;;;;;;20.75;14.65;;;8.70;99.90;;;;;;4826299;29;20056;-74
2023/03/19 04:38:25;;;;;;;20.45;14.40;;;8.60;99.90;;;;;;4841326;29;20129;-74
2023/03/19 04:40:52;;;;;;;19.67;14.55;;;8.50;99.90;;;;;;4810127;29;20053;-74
2023/03/19 04:43:17;;;;;;;21.30;14.10;;;8.40;99.90;;;;;;4823373;29;20047;-74
2023/03/19 04:45:44;;;;;;;24.33;15.73;;;8.30;99.90;;;;;;4811872;29;20049;-74
2023/03/19 04:48:10;;;;;;;22.67;15.63;;;8.20;99.90;;;;;;4823071;29;20412;-74
2023/03/19 04:50:36;;;;;;;22.23;14.77;;;8.10;99.90;;;;;;4810003;29;20041;-74
2023/03/19 04:53:02;;;;;;;22.80;15.18;;;8.00;99.90;;;;;;4840980;29;20466;-74
2023/03/19 04:55:28;;;;;;;22.73;14.87;;;8.00;99.90;;;;;;4823764;29;20053;-74
2023/03/19 04:57:53;;;;;;;22.93;15.70;;;7.90;99.90;;;;;;4810854;29;20121;-74
2023/03/19 05:00:20;;;;;;;24.47;16.53;;;7.90;99.90;;;;;;4809522;29;20045;-74
2023/03/19 05:02:46;;;;;;;26.20;16.00;;;7.80;99.90;;;;;;4839734;29;20510;-74
2023/03/19 05:05:12;;;;;;;27.30;17.02;;;7.80;99.90;;;;;;4841308;29;20382;-74
2023/03/19 05:07:39;;;;;;;26.95;16.25;;;7.70;99.90;;;;;;4814193;29;20046;-74
2023/03/19 05:10:06;;;;;;;28.48;17.88;;;7.70;99.90;;;;;;4805330;29;20436;-74
2023/03/19 05:12:32;;;;;;;28.25;17.35;;;7.60;99.90;;;;;;4835522;29;20054;-74
2023/03/19 05:14:58;;;;;;;30.20;18.63;;;7.50;99.90;;;;;;4840740;29;20049;-74
2023/03/19 05:17:24;;;;;;;30.37;18.80;;;7.50;99.90;;;;;;4810675;29;20050;-74
2023/03/19 05:19:51;;;;;;;27.83;17.23;;;7.40;99.90;;;;;;4838502;29;20574;-74
2023/03/19 05:22:18;;;;;;;28.15;17.45;;;7.40;99.90;;;;;;4824980;29;20787;-74
2023/03/19 05:24:44;;;;;;;32.78;18.42;;;7.30;99.90;;;;;;4840495;29;20406;-74
2023/03/19 05:27:11;;;;;;;31.58;18.33;;;7.30;99.90;;;;;;4810488;29;20141;-74
2023/03/19 05:29:37;;;;;;;33.05;17.92;;;7.20;99.90;;;;;;4828480;29;20512;-74
2023/03/19 05:32:03;;;;;;;31.23;18.50;;;7.20;99.90;;;;;;4820495;29;20069;-74
2023/03/19 05:34:29;;;;;;;35.20;19.15;;;7.10;99.90;;;;;;4805600;29;20144;-74
2023/03/19 05:36:55;;;;;;;39.00;19.98;;;7.10;99.90;;;;;;4837655;29;20140;-74
2023/03/19 05:39:21;;;;;;;34.35;19.75;;;7.00;99.90;;;;;;4839682;29;20101;-74
2023/03/19 05:41:47;;;;;;;32.53;20.10;;;7.00;99.90;;;;;;4821526;29;20046;-74
2023/03/19 05:44:13;;;;;;;35.53;20.30;;;7.00;99.90;;;;;;4823741;29;20063;-74
2023/03/19 05:46:38;;;;;;;41.80;21.13;;;7.00;99.90;;;;;;4809749;29;20046;-74
2023/03/19 05:49:04;;;;;;;38.93;22.50;;;6.90;99.90;;;;;;4809842;29;20502;-74
2023/03/19 05:51:31;;;;;;;41.53;22.55;;;6.90;99.90;;;;;;4823113;29;20460;-74
2023/03/19 05:53:56;;;;;;;43.75;23.95;;;6.90;99.90;;;;;;4824003;29;20049;-74
2023/03/19 05:56:22;;;;;;;46.83;24.53;;;6.90;99.90;;;;;;4824533;29;20101;-74
2023/03/19 05:58:48;;;;;;;46.30;24.27;;;6.90;99.90;;;;;;4807396;29;20463;-74
2023/03/19 06:01:13;;;;;;;43.60;23.57;;;6.90;99.90;;;;;;4815354;29;20087;-74
2023/03/19 06:03:39;;;;;;;43.90;23.10;;;6.90;99.90;;;;;;4806314;29;20052;-74
2023/03/19 06:06:06;;;;;;;44.10;23.30;;;6.90;99.90;;;;;;4806614;29;20110;-74
2023/03/19 06:08:32;;;;;;;41.90;23.65;;;6.90;99.90;;;;;;4839228;29;20360;-74
2023/03/19 06:10:58;;;;;;;45.35;24.88;;;6.80;99.90;;;;;;4824302;29;20460;-74
2023/03/19 06:13:23;;;;;;;48.20;24.20;;;6.80;99.90;;;;;;4827009;29;20070;-74
2023/03/19 06:15:49;;;;;;;42.20;23.30;;;6.80;99.90;;;;;;4824920;29;20049;-74
2023/03/19 06:18:15;;;;;;;45.57;24.43;;;6.90;99.90;;;;;;4807494;29;20105;-74
2023/03/19 06:20:41;;;;;;;47.20;24.00;;;6.90;99.90;;;;;;4829619;29;20543;-74
2023/03/19 06:23:07;;;;;;;46.53;25.20;;;7.00;99.90;;;;;;4809569;29;20348;-74
2023/03/19 06:25:33;;;;;;;51.27;25.10;;;7.00;99.90;;;;;;4824696;29;20041;-74
2023/03/19 06:27:58;;;;;;;49.50;25.43;;;7.00;99.90;;;;;;4824104;29;20081;-74
2023/03/19 06:30:25;;;;;;;47.03;24.60;;;7.10;99.90;;;;;;4809057;29;20424;-74
2023/03/19 06:32:51;;;;;;;50.28;25.92;;;7.10;99.90;;;;;;4823536;29;20050;-74
2023/03/19 06:35:17;;;;;;;51.77;26.47;;;7.10;99.90;;;;;;4809625;29;20092;-74
2023/03/19 06:37:42;;;;;;;51.27;25.27;;;7.10;99.90;;;;;;4838251;29;20490;-74
2023/03/19 06:40:09;;;;;;;48.63;26.03;;;7.10;99.90;;;;;;4806704;29;20332;-74
2023/03/19 06:42:35;;;;;;;55.80;25.77;;;7.20;99.90;;;;;;4804465;29;20054;-74
2023/03/19 06:45:01;;;;;;;51.80;25.23;;;7.20;99.90;;;;;;4820927;29;20050;-74
2023/03/19 06:47:27;;;;;;;50.37;25.07;;;7.20;99.90;;;;;;4838726;29;20136;-74
2023/03/19 06:49:53;;;;;;;50.13;25.77;;;7.30;99.90;;;;;;4837972;29;20049;-74
2023/03/19 06:52:18;;;;;;;47.13;24.43;;;7.30;99.90;;;;;;4819563;29;20305;-74
2023/03/19 06:54:44;;;;;;;45.10;24.70;;;7.40;99.90;;;;;;4804485;29;20052;-74
2023/03/19 06:57:10;;;;;;;45.70;23.67;;;7.40;99.90;;;;;;4803121;29;20505;-74
2023/03/19 06:59:36;;;;;;;46.93;24.03;;;7.50;99.90;;;;;;4836877;29;20037;-74
2023/03/19 07:02:02;;;;;;;46.70;24.73;;;7.70;99.90;;;;;;4806147;29;20605;-74
2023/03/19 07:04:28;;;;;;;51.50;24.63;;;7.80;99.90;;;;;;4823739;29;20113;-74
2023/03/19 07:06:54;;;;;;;51.15;25.27;;;7.90;99.90;;;;;;4808594;29;20286;-74
2023/03/19 07:09:19;;;;;;;47.13;24.00;;;8.00;99.90;;;;;;4803199;29;20483;-74
2023/03/19 07:11:45;;;;;;;45.97;23.50;;;8.10;99.90;;;;;;4821145;29;20046;-74
2023/03/19 07:14:11;;;;;;;48.03;23.43;;;8.20;99.90;;;;;;4823693;29;20049;-74
2023/03/19 07:16:37;;;;;;;48.07;23.40;;;8.30;99.90;;;;;;4808551;29;20502;-74
2023/03/19 07:19:02;;;;;;;55.23;24.77;;;8.40;99.90;;;;;;4821015;29;20052;-74
2023/03/19 07:21:28;;;;;;;55.70;25.50;;;8.40;99.90;;;;;;4833416;29;20049;-74
2023/03/19 07:23:54;;;;;;;52.37;24.83;;;8.50;99.90;;;;;;4833668;29;20494;-74
2023/03/19 07:26:20;;;;;;;57.90;27.47;;;8.50;99.90;;;;;;4823082;29;20472;-74
2023/03/19 07:28:46;;;;;;;60.07;28.43;;;8.50;99.90;;;;;;4821231;29;20439;-74
2023/03/19 07:31:12;;;;;;;57.10;27.63;;;8.60;99.90;;;;;;4807576;29;20053;-74
2023/03/19 07:33:37;;;;;;;53.75;26.67;;;8.60;99.90;;;;;;4807568;29;20052;-74
2023/03/19 07:36:03;;;;;;;49.00;24.60;;;8.60;99.90;;;;;;4823771;29;20049;-74
2023/03/19 07:38:29;;;;;;;55.47;27.00;;;8.60;99.90;;;;;;4838519;29;20598;-74
2023/03/19 07:40:55;;;;;;;59.83;29.87;;;8.50;99.90;;;;;;4823078;29;20499;-74
2023/03/19 07:43:21;;;;;;;63.57;31.63;;;8.50;99.90;;;;;;4807619;29;20101;-74
2023/03/19 07:45:46;;;;;;;63.97;30.50;;;8.40;99.90;;;;;;4807619;29;20121;-75
2023/03/19 07:48:12;;;;;;;65.90;31.90;;;8.40;99.90;;;;;;4808580;29;20051;-75
2023/03/19 07:50:38;;;;;;;67.20;32.13;;;8.40;99.90;;;;;;4807142;29;20491;-74
2023/03/19 07:53:04;;;;;;;68.70;34.33;;;8.40;99.90;;;;;;4822938;29;20567;-74
2023/03/19 07:55:30;;;;;;;71.33;35.50;;;8.50;99.90;;;;;;4820437;29;20080;-74
2023/03/19 07:57:55;;;;;;;80.03;36.57;;;8.50;99.90;;;;;;4808365;29;20878;-74
2023/03/19 08:00:21;;;;;;;71.00;34.37;;;8.40;99.90;;;;;;4839090;29;20105;-74
2023/03/19 08:02:47;;;;;;;78.80;35.87;;;8.40;99.90;;;;;;4813013;29;20269;-74
2023/03/19 08:05:13;;;;;;;73.87;35.43;;;8.30;99.90;;;;;;4823574;29;20094;-75
2023/03/19 08:07:39;;;;;;;76.27;35.67;;;8.40;99.90;;;;;;4807347;29;20525;-75
2023/03/19 08:10:06;;;;;;;77.70;34.90;;;8.40;99.90;;;;;;4806937;29;20321;-75
2023/03/19 08:12:38;;;;;;;83.03;35.72;;;8.40;99.90;;;;;;4839268;29;20723;-75
2023/03/19 08:15:04;;;;;;;69.57;34.75;;;8.30;99.90;;;;;;4841621;29;20566;-75
2023/03/19 08:17:33;;;;;;;74.35;33.38;;;8.30;99.90;;;;;;4807568;29;20050;-75
2023/03/19 08:19:58;;;;;;;77.78;34.90;;;8.40;99.90;;;;;;4839297;29;20128;-75
2023/03/19 08:22:24;;;;;;;92.13;37.30;;;8.40;99.90;;;;;;4806883;29;20473;-75
2023/03/19 08:24:50;;;;;;;107.00;35.00;;;8.40;99.90;;;;;;4840618;29;20093;-76
2023/03/19 08:27:16;;;;;;;94.97;34.90;;;8.30;99.90;;;;;;4828670;29;20088;-76
2023/03/19 08:29:42;;;;;;;83.80;33.27;;;8.30;99.90;;;;;;4829540;29;20080;-75
2023/03/19 08:32:08;;;;;;;117.53;36.50;;;8.30;99.90;;;;;;4829056;29;20538;-75
2023/03/19 08:34:34;;;;;;;90.70;32.90;;;8.20;99.90;;;;;;4815311;29;20093;-75
2023/03/19 08:37:00;;;;;;;98.35;32.67;;;8.20;99.90;;;;;;4844679;29;20065;-75
2023/03/19 08:39:26;;;;;;;83.68;29.77;;;8.10;99.90;;;;;;4813316;29;20682;-74
2023/03/19 08:41:52;;;;;;;112.73;28.43;;;8.00;99.90;;;;;;4840155;29;20176;-75
2023/03/19 08:44:17;;;;;;;121.30;28.83;;;8.00;99.90;;;;;;4839041;29;20038;-76
2023/03/19 08:46:43;;;;;;;112.37;27.77;;;8.00;99.90;;;;;;4821485;29;20268;-75
2023/03/19 08:49:09;;;;;;;82.17;25.23;;;8.00;99.90;;;;;;4813840;29;20041;-75
2023/03/19 08:51:35;;;;;;;70.70;24.43;;;8.00;99.90;;;;;;4813665;29;20037;-75
2023/03/19 08:54:01;;;;;;;115.30;28.25;;;8.00;99.90;;;;;;4828832;29;20052;-76
2023/03/19 08:56:26;;;;;;;102.87;25.80;;;8.10;99.90;;;;;;4812340;29;20049;-76
2023/03/19 08:58:52;;;;;;;103.30;24.27;;;8.10;99.90;;;;;;4813837;29;20124;-76
2023/03/19 09:01:18;;;;;;;81.13;24.17;;;8.00;99.90;;;;;;4814255;29;20132;-76
2023/03/19 09:03:44;;;;;;;63.10;22.87;;;8.00;99.90;;;;;;4827390;29;20041;-76
2023/03/19 09:06:13;;;;;;;78.65;23.58;;;8.00;99.90;;;;;;4826034;29;20048;-75
2023/03/19 09:08:39;;;;;;;73.93;24.17;;;8.00;99.90;;;;;;4828673;29;20049;-75
2023/03/19 09:11:05;;;;;;;56.83;22.83;;;8.00;99.90;;;;;;4810428;29;20399;-75
2023/03/19 09:13:32;;;;;;;76.88;24.88;;;8.10;99.90;;;;;;4828534;29;20677;-74
2023/03/19 09:15:57;;;;;;;74.25;25.13;;;8.10;99.90;;;;;;4828046;29;20085;-75
2023/03/19 09:18:24;;;;;;;71.93;26.33;;;8.10;99.90;;;;;;4843671;29;20081;-74
2023/03/19 09:20:51;;;;;;;70.00;25.67;;;8.10;99.90;;;;;;4827768;29;20042;-75
2023/03/19 09:23:17;;;;;;;73.00;25.35;;;8.20;99.90;;;;;;4820585;29;20037;-75
2023/03/19 09:25:42;;;;;;;70.00;25.97;;;8.20;99.90;;;;;;4855765;29;20056;-75
2023/03/19 09:28:08;;;;;;;74.80;24.13;;;8.20;99.90;;;;;;4840212;29;20321;-75
2023/03/19 09:30:35;;;;;;;57.03;22.35;;;8.20;99.90;;;;;;4803537;29;20058;-75
2023/03/19 09:33:01;;;;;;;64.05;22.55;;;8.30;99.90;;;;;;4839818;29;20133;-75
2023/03/19 09:35:30;;;;;;;65.80;24.23;;;8.30;99.90;;;;;;4821518;29;20902;-74
2023/03/19 09:37:57;;;;;;;62.75;22.95;;;8.40;99.90;;;;;;4810168;29;20071;-74
2023/03/19 09:40:32;;;;;;;56.03;20.95;;;8.40;99.90;;;;;;4837351;29;20121;-73
2023/03/19 09:43:16;;;;;;;60.08;21.88;;;8.50;99.90;;;;;;4822684;29;20041;-72
2023/03/19 09:45:45;;;;;;;53.97;21.27;;;8.50;99.90;;;;;;4839394;29;20049;-72
2023/03/19 09:48:19;;;;;;;53.40;21.73;;;8.60;99.90;;;;;;4855074;29;20337;-72
2023/03/19 09:50:47;;;;;;;47.40;20.88;;;8.70;99.90;;;;;;4837242;29;20052;-72
2023/03/19 09:53:57;;;;;;;58.05;23.52;;;8.80;99.90;;;;;;4819058;29;20434;-74
2023/03/19 09:56:24;;;;;;;59.22;22.30;;;8.80;99.90;;;;;;4799018;29;20141;-74
2023/03/19 09:58:51;;;;;;;51.85;21.48;;;8.80;99.90;;;;;;4814148;29;20053;-73
2023/03/19 10:01:32;;;;;;;55.40;22.83;;;8.90;99.90;;;;;;4807150;29;20499;-73
2023/03/19 10:04:35;;;;;;;52.67;21.95;;;8.90;99.90;;;;;;4836621;29;20132;-74
2023/03/19 10:07:37;;;;;;;50.63;21.42;;;9.00;99.90;;;;;;4838504;29;20061;-73
2023/03/19 10:10:06;;;;;;;44.70;21.02;;;9.00;99.90;;;;;;4819327;29;20057;-73
2023/03/19 10:13:00;;;;;;;46.38;20.23;;;9.00;99.90;;;;;;4820637;29;20477;-73
2023/03/19 10:15:36;;;;;;;44.45;20.02;;;9.00;99.90;;;;;;4821396;29;20164;-73
2023/03/19 10:18:09;;;;;;;56.13;22.13;;;9.00;99.90;;;;;;4819725;29;20094;-75
2023/03/19 10:20:40;;;;;;;47.50;20.97;;;9.00;99.90;;;;;;4817620;29;20473;-73
2023/03/19 10:23:22;;;;;;;41.78;18.75;;;9.00;99.90;;;;;;4815952;29;20282;-73
2023/03/19 10:25:51;;;;;;;41.22;18.95;;;9.00;99.90;;;;;;4823339;29;20121;-73
2023/03/19 10:28:20;;;;;;;37.42;18.02;;;9.10;99.90;;;;;;4802633;29;20041;-73
2023/03/19 10:30:59;;;;;;;32.63;16.65;;;9.20;99.90;;;;;;4798777;29;20140;-73
2023/03/19 10:33:39;;;;;;;33.08;17.60;;;9.20;99.90;;;;;;4832106;29;20128;-73
2023/03/19 10:36:09;;;;;;;26.73;14.45;;;9.20;99.90;;;;;;4829781;29;20061;-73
2023/03/19 10:38:40;;;;;;;30.43;16.63;;;9.30;99.90;;;;;;4819593;29;20034;-73
2023/03/19 10:41:14;;;;;;;27.70;16.27;;;9.30;99.90;;;;;;4826589;29;20366;-73
2023/03/19 10:43:42;;;;;;;22.98;14.27;;;9.30;99.90;;;;;;4821032;29;20144;-73
2023/03/19 10:46:13;;;;;;;22.58;13.45;;;9.30;99.90;;;;;;4810281;29;20563;-74
2023/03/19 10:48:44;;;;;;;23.60;13.10;;;9.20;99.90;;;;;;4813248;29;20049;-74
2023/03/19 10:51:14;;;;;;;23.70;13.77;;;9.30;99.90;;;;;;4833001;29;20498;-73
2023/03/19 10:53:41;;;;;;;27.23;14.20;;;9.20;99.90;;;;;;4813755;29;20286;-73
2023/03/19 10:56:16;;;;;;;28.65;14.65;;;9.20;99.90;;;;;;4800980;29;20830;-73
2023/03/19 10:59:02;;;;;;;28.73;13.93;;;9.20;99.90;;;;;;4851560;29;20041;-73
2023/03/19 11:01:36;;;;;;;29.70;16.70;;;9.10;99.90;;;;;;4830295;29;20076;-74
2023/03/19 11:04:13;;;;;;;36.00;16.35;;;9.10;99.90;;;;;;4819025;29;20049;-73
2023/03/19 11:06:39;;;;;;;36.55;16.13;;;9.00;99.90;;;;;;4833024;29;20049;-73
2023/03/19 11:09:09;;;;;;;31.67;15.50;;;9.00;99.90;;;;;;4805742;29;20173;-73
2023/03/19 11:11:36;;;;;;;32.85;15.60;;;9.00;99.90;;;;;;4848341;29;20049;-73
2023/03/19 11:14:16;;;;;;;29.95;14.77;;;9.00;99.90;;;;;;4822772;29;20164;-73
2023/03/19 11:16:50;;;;;;;30.15;15.23;;;9.00;99.90;;;;;;4820274;29;20049;-72
2023/03/19 11:19:20;;;;;;;21.25;12.35;;;9.10;99.90;;;;;;4833011;29;20049;-73
2023/03/19 11:21:58;;;;;;;25.48;13.93;;;9.20;99.90;;;;;;4834859;29;20049;-73
2023/03/19 11:24:25;;;;;;;27.67;14.95;;;9.20;99.90;;;;;;4834759;29;20037;-73
2023/03/19 11:26:55;;;;;;;28.77;15.27;;;9.30;99.90;;;;;;4821015;29;20113;-73
2023/03/19 11:29:22;;;;;;;29.07;14.73;;;9.40;99.90;;;;;;4820248;29;20210;-73
2023/03/19 11:32:04;;;;;;;28.43;15.60;;;9.50;99.90;;;;;;4820472;29;20393;-73
2023/03/19 11:34:41;;;;;;;28.90;14.97;;;9.60;99.90;;;;;;4821159;29;20304;-74
2023/03/19 11:37:20;;;;;;;29.00;15.03;;;9.70;99.90;;;;;;4818221;29;20337;-73
2023/03/19 11:39:57;;;;;;;28.57;16.93;;;9.80;99.90;;;;;;4837669;29;20279;-73
2023/03/19 11:42:39;;;;;;;32.60;16.20;;;9.90;99.90;;;;;;4820816;29;21554;-73
2023/03/19 11:46:02;;;;;;;30.97;16.77;;;9.90;99.90;;;;;;4836657;29;20365;-75
2023/03/19 11:48:48;;;;;;;30.60;17.10;;;10.00;99.90;;;;;;4801433;29;20665;-76
2023/03/19 11:51:50;;;;;;;33.57;17.47;;;10.00;99.90;;;;;;4807904;29;20295;-75
2023/03/19 11:54:25;;;;;;;31.53;16.37;;;10.10;99.90;;;;;;4805439;29;20290;-74
2023/03/19 11:56:59;;;;;;;30.92;16.20;;;10.10;99.90;;;;;;4819099;29;20310;-75
2023/03/19 11:59:45;;;;;;;30.63;16.88;;;10.10;99.90;;;;;;4839130;29;20042;-74
2023/03/19 12:02:47;;;;;;;33.27;17.43;;;10.10;99.90;;;;;;4827328;29;20033;-75
2023/03/19 12:05:21;;;;;;;30.47;17.23;;;10.20;99.90;;;;;;4821977;29;20297;-75
2023/03/19 12:07:58;;;;;;;33.17;17.30;;;10.30;99.90;;;;;;4845272;29;20805;-74
2023/03/19 12:10:52;;;;;;;32.63;16.97;;;10.40;99.90;;;;;;4828597;29;20058;-75
2023/03/19 12:13:36;;;;;;;31.47;17.73;;;10.40;99.90;;;;;;4830483;29;20298;-74
2023/03/19 12:16:25;;;;;;;32.67;16.17;;;10.50;99.90;;;;;;4826366;29;20975;-75
2023/03/19 12:18:58;;;;;;;32.27;15.97;;;10.60;99.90;;;;;;4829856;29;20291;-75
2023/03/19 12:21:36;;;;;;;34.07;17.40;;;10.60;99.90;;;;;;4825147;29;20316;-74
2023/03/19 12:24:53;;;;;;;33.83;17.80;;;10.60;99.90;;;;;;4822712;29;20397;-75
2023/03/19 12:27:39;;;;;;;35.53;17.47;;;10.60;99.90;;;;;;4779979;29;20286;-74
2023/03/19 12:30:15;;;;;;;37.83;18.73;;;10.50;99.90;;;;;;4836077;29;20636;-75
2023/03/19 12:33:24;;;;;;;44.20;21.43;;;10.50;99.90;;;;;;4841577;29;20659;-75
2023/03/19 12:35:54;;;;;;;41.33;20.60;;;10.50;99.90;;;;;;4834695;29;20279;-75
2023/03/19 12:38:44;;;;;;;48.83;21.43;;;10.40;99.90;;;;;;4825491;29;20302;-75
2023/03/19 12:41:25;;;;;;;46.10;22.47;;;10.40;99.90;;;;;;4822627;29;20294;-74
2023/03/19 12:44:07;;;;;;;49.67;23.00;;;10.30;99.90;;;;;;4840214;29;20293;-75
2023/03/19 12:46:40;;;;;;;49.87;22.60;;;10.30;99.90;;;;;;4826509;29;20701;-75
2023/03/19 12:49:15;;;;;;;47.53;23.17;;;10.30;99.90;;;;;;4825172;29;20349;-74